• Join FlightAware (Why Join?)
  • Login
  • US Flag 
04:30PM EDT


 

Airport Tracker/Info


-or-


 

Live Flight TrackerFlight Track Log ✈ N4118B ✈ 07-May-2014 ✈ KBNA - KTYS

Flight Track Log - Related Links

Times and Time Zones

All times are in EDT time to prevent confusion due to time zone crossing. See the N4118B flight status page for this flight to view local times or setup timezone preferences in your user account.

Time Position Orientation Groundspeed Altitude Reporting Facility
EDT Latitude Longitude Course Direction KTS MPH feet Rate Location/Type
09:37AM 36.0833 -86.6833 180° South 114 131 1,300  Level Nashville TRACON
09:38AM 36.0842 -86.6514 88° East 118 136 1,600 480 Climbing Memphis Center
09:39AM 36.0828 -86.6019 92° East 135 155 2,200 600 Climbing Memphis Center
09:40AM 36.0836 -86.5542 89° East 138 159 2,900 660 Climbing Memphis Center
09:41AM 36.0797 -86.5075 96° East 138 159 3,600 600 Climbing Memphis Center
09:42AM 36.0697 -86.4553 103° East 135 155 4,200 540 Climbing Memphis Center
09:43AM 36.0686 -86.4022 91° East 147 169 4,800 540 Climbing Memphis Center
09:44AM 36.0667 -86.3511 93° East 149 171 5,400 540 Climbing Memphis Center
09:45AM 36.0600 -86.3014 99° East 148 170 6,000 600 Climbing Memphis Center
09:46AM 36.0550 -86.2511 97° East 148 170 6,700 540 Climbing Memphis Center
09:47AM 36.0519 -86.2006 94° East 148 170 7,200 360 Climbing Memphis Center
09:48AM 36.0503 -86.1481 92° East 148 170 7,500 180 Climbing Memphis Center
09:49AM 36.0469 -86.0775 93° East 173 199 7,600  Climbing Memphis Center
09:50AM 36.0392 -86.0131 98° East 183 211 7,600  Level Memphis Center
09:51AM 36.0331 -85.9456 96° East 190 219 7,600  Level Memphis Center
09:52AM 36.0281 -85.8783 95° East 192 221 7,600  Level Memphis Center
09:53AM 36.0231 -85.8150 96° East 193 222 7,700  Climbing Memphis Center
09:54AM 36.0172 -85.7342 95° East 194 223 7,700  Level Memphis Center
09:55AM 36.0144 -85.6703 93° East 193 222 7,700  Level Memphis Center
09:56AM 36.0097 -85.6072 95° East 190 219 7,700  Level Memphis Center
09:57AM 36.0061 -85.5450 94° East 184 212 7,700  Level Memphis Center
09:58AM 36.0017 -85.4825 95° East 184 212 7,700  Level Memphis Center
09:59AM 35.9961 -85.4189 96° East 184 212 7,700  Level Memphis Center
10:00AM 35.9858 -85.3456 100° East 183 211 7,700  Level Memphis Center
10:02AM 35.9772 -85.2831 100° East 184 212 7,700  Level Memphis Center
10:03AM 35.9683 -85.2206 100° East 184 212 7,700  Level Memphis Center
10:04AM 35.9589 -85.1572 100° East 184 212 7,700  Level Memphis Center
10:05AM 35.9503 -85.0953 100° East 184 212 7,700  Level Memphis Center
10:05AM 35.9436 -85.0594 103° East 181 208 7,700  Level Atlanta Center
10:06AM 35.9336 -84.9928 100° East 181 208 7,700  Level Atlanta Center
10:07AM 35.9258 -84.9286 98° East 181 208 7,700 -120 Level Atlanta Center
10:08AM 35.9178 -84.8669 99° East 181 208 7,500  Descending Atlanta Center
10:09AM 35.9119 -84.8053 97° East 181 208 7,700 60 Climbing Atlanta Center
10:10AM 35.9061 -84.7411 96° East 181 208 7,700  Level Atlanta Center
10:11AM 35.9003 -84.6797 97° East 181 208 7,700  Level Atlanta Center
10:12AM 35.8922 -84.6156 99° East 181 208 7,700  Level Atlanta Center
10:13AM 35.8861 -84.5539 97° East 181 208 7,700  Level Atlanta Center
10:14AM 35.8781 -84.4897 99° East 181 208 7,700  Level Atlanta Center
10:15AM 35.8700 -84.4283 99° East 181 208 7,700  Level Atlanta Center
10:16AM 35.8597 -84.3667 102° East 181 208 7,700  Level Atlanta Center
10:17AM 35.8514 -84.3053 99° East 181 208 7,700  Level Atlanta Center
10:19AM 35.8395 -84.2382 102° East  Level FlightAware Approximate
10:26AM 35.8110 -83.9940 90° East  Level Estimated
10:27AM 35.8110 -83.9940 90° East  Level Estimated
10:28AM 35.8110 -83.9940 90° East  Level Estimated
10:29AM 35.8110 -83.9940 90° East  Level Estimated
10:30AM 35.8110 -83.9940 90° East  Level Estimated
10:31AM 35.8110 -83.9940 90° East  Level Estimated
10:32AM 35.8110 -83.9940 90° East  Level Estimated
10:33AM 35.8110 -83.9940 90° East  Level Estimated
10:34AM 35.8110 -83.9940 90° East  Level Estimated
10:35AM 35.8110 -83.9940 90° East  Level Estimated